EXS97UE LEPA-EGCC
Flight info
| Callsign | EXS97UE |
|---|---|
| Flight time | N/A |
| Altitude | 40000 |
| Route | DRAGO N863 PAPOS DCT UMURE DCT XIKEN DCT KARES DCT ARBEK N863 USKAR DCT MOPAS N863 GIROM DCT GONUP DCT TUPAR UN861 ANG DCT AKIKI UN867 AVANT UM184 HEMEL T420 ELVOS |
| Aircraft | A332/H-SDE3GHIJ2J3J5M1RVWXY/LB2D1 |
Departure
| Time | N/A |
|---|---|
| Airport | Palma de Mallorca Airport (LEPA) |
Arrival
| Time | 2026-05-04 19:51 |
|---|---|
| Airport | Manchester Airport (EGCC) |
| Time | Latitude | Longitude | Altitude | Speed | Heading |
|---|---|---|---|---|---|
| 2026-05-04 19:30 | 52.06737 | -0.97072 | 34621 ft | 467 kts | 349° |
| 2026-05-04 19:31 | 52.09952 | -0.97981 | 33966 ft | 468 kts | 349° |
| 2026-05-04 19:31 | 52.13164 | -0.98892 | 33222 ft | 469 kts | 349° |
| 2026-05-04 19:31 | 52.16387 | -0.99811 | 32490 ft | 470 kts | 349° |
| 2026-05-04 19:31 | 52.19607 | -1.00733 | 31786 ft | 470 kts | 349° |
| 2026-05-04 19:32 | 52.22828 | -1.01658 | 31057 ft | 470 kts | 349° |
| 2026-05-04 19:32 | 52.26046 | -1.02583 | 30359 ft | 470 kts | 349° |
| 2026-05-04 19:32 | 52.29269 | -1.03510 | 29606 ft | 469 kts | 349° |
| 2026-05-04 19:32 | 52.32479 | -1.04433 | 28796 ft | 468 kts | 349° |
| 2026-05-04 19:33 | 52.35689 | -1.05357 | 28020 ft | 467 kts | 348° |
| 2026-05-04 19:33 | 52.38884 | -1.06278 | 27272 ft | 465 kts | 348° |
| 2026-05-04 19:33 | 52.42063 | -1.07195 | 26538 ft | 463 kts | 348° |
| 2026-05-04 19:33 | 52.45232 | -1.08111 | 25818 ft | 461 kts | 347° |
| 2026-05-04 19:34 | 52.48303 | -1.09474 | 25151 ft | 455 kts | 335° |
| 2026-05-04 19:34 | 52.51138 | -1.11707 | 24503 ft | 448 kts | 329° |
| 2026-05-04 19:34 | 52.53814 | -1.14150 | 23906 ft | 444 kts | 326° |
| 2026-05-04 19:34 | 52.56448 | -1.16750 | 23224 ft | 439 kts | 324° |
| 2026-05-04 19:35 | 52.59025 | -1.19405 | 22508 ft | 435 kts | 324° |
| 2026-05-04 19:35 | 52.61574 | -1.22033 | 21817 ft | 431 kts | 324° |
| 2026-05-04 19:35 | 52.64105 | -1.24627 | 21163 ft | 425 kts | 325° |
| 2026-05-04 19:35 | 52.66576 | -1.27147 | 20535 ft | 409 kts | 325° |
| 2026-05-04 19:36 | 52.68944 | -1.29555 | 20094 ft | 391 kts | 325° |
| 2026-05-04 19:36 | 52.71237 | -1.31890 | 19482 ft | 381 kts | 326° |
| 2026-05-04 19:36 | 52.73475 | -1.34175 | 18959 ft | 377 kts | 326° |
| 2026-05-04 19:36 | 52.75669 | -1.36416 | 18544 ft | 373 kts | 326° |
| 2026-05-04 19:37 | 52.77860 | -1.38654 | 18066 ft | 369 kts | 326° |
| 2026-05-04 19:37 | 52.80035 | -1.40878 | 17523 ft | 365 kts | 326° |
| 2026-05-04 19:37 | 52.82189 | -1.43082 | 17026 ft | 362 kts | 326° |
| 2026-05-04 19:37 | 52.84328 | -1.45273 | 16532 ft | 360 kts | 326° |
| 2026-05-04 19:38 | 52.86449 | -1.47447 | 16096 ft | 358 kts | 326° |
| 2026-05-04 19:38 | 52.88559 | -1.49614 | 15665 ft | 356 kts | 327° |
| 2026-05-04 19:38 | 52.90656 | -1.51769 | 15246 ft | 352 kts | 327° |
| 2026-05-04 19:38 | 52.92701 | -1.53872 | 14837 ft | 347 kts | 327° |
| 2026-05-04 19:39 | 52.94740 | -1.55968 | 14425 ft | 343 kts | 327° |
| 2026-05-04 19:39 | 52.96753 | -1.58044 | 14027 ft | 338 kts | 327° |
| 2026-05-04 19:39 | 52.98743 | -1.60101 | 13595 ft | 334 kts | 327° |
| 2026-05-04 19:39 | 53.00701 | -1.62125 | 13173 ft | 329 kts | 327° |
| 2026-05-04 19:40 | 53.02632 | -1.64121 | 12794 ft | 324 kts | 327° |
| 2026-05-04 19:40 | 53.04509 | -1.66101 | 12416 ft | 319 kts | 323° |
| 2026-05-04 19:40 | 53.06166 | -1.68511 | 12064 ft | 312 kts | 312° |
| 2026-05-04 19:40 | 53.07599 | -1.71171 | 11756 ft | 305 kts | 310° |
| 2026-05-04 19:41 | 53.08964 | -1.73823 | 11454 ft | 299 kts | 309° |
| 2026-05-04 19:41 | 53.10300 | -1.76430 | 11164 ft | 293 kts | 309° |
| 2026-05-04 19:41 | 53.11610 | -1.78987 | 10859 ft | 289 kts | 309° |
| 2026-05-04 19:41 | 53.12910 | -1.81522 | 10565 ft | 287 kts | 310° |
| 2026-05-04 19:42 | 53.14205 | -1.84046 | 10257 ft | 285 kts | 310° |
| 2026-05-04 19:42 | 53.15493 | -1.86556 | 9936 ft | 284 kts | 310° |
| 2026-05-04 19:42 | 53.16775 | -1.89056 | 9585 ft | 283 kts | 310° |
| 2026-05-04 19:42 | 53.18099 | -1.91403 | 9248 ft | 281 kts | 322° |
| 2026-05-04 19:43 | 53.19850 | -1.92798 | 8908 ft | 280 kts | 346° |
| 2026-05-04 19:43 | 53.21772 | -1.93246 | 8604 ft | 277 kts | 354° |
| 2026-05-04 19:43 | 53.23684 | -1.93489 | 8299 ft | 273 kts | 355° |
| 2026-05-04 19:43 | 53.25573 | -1.93697 | 7981 ft | 268 kts | 355° |
| 2026-05-04 19:44 | 53.27399 | -1.93884 | 7637 ft | 258 kts | 355° |
| 2026-05-04 19:44 | 53.29171 | -1.94066 | 7287 ft | 252 kts | 355° |
| 2026-05-04 19:44 | 53.30893 | -1.94248 | 6905 ft | 250 kts | 355° |
| 2026-05-04 19:44 | 53.32624 | -1.94438 | 6517 ft | 248 kts | 355° |
| 2026-05-04 19:45 | 53.34336 | -1.94627 | 6096 ft | 244 kts | 355° |
| 2026-05-04 19:45 | 53.36005 | -1.94816 | 5710 ft | 237 kts | 355° |
| 2026-05-04 19:45 | 53.37642 | -1.95006 | 5335 ft | 232 kts | 355° |
| 2026-05-04 19:45 | 53.39245 | -1.95194 | 4998 ft | 230 kts | 355° |
| 2026-05-04 19:46 | 53.40842 | -1.95381 | 4698 ft | 229 kts | 355° |
| 2026-05-04 19:46 | 53.42436 | -1.95561 | 4376 ft | 230 kts | 355° |
| 2026-05-04 19:46 | 53.43983 | -1.96146 | 4067 ft | 229 kts | 332° |
| 2026-05-04 19:46 | 53.45293 | -1.97633 | 3828 ft | 226 kts | 321° |
| 2026-05-04 19:47 | 53.46427 | -1.99358 | 3632 ft | 221 kts | 305° |
| 2026-05-04 19:47 | 53.46822 | -2.01752 | 3515 ft | 213 kts | 264° |
| 2026-05-04 19:47 | 53.46410 | -2.04065 | 3511 ft | 205 kts | 250° |
| 2026-05-04 19:47 | 53.45723 | -2.06142 | 3343 ft | 201 kts | 236° |
| 2026-05-04 19:48 | 53.44847 | -2.07960 | 3074 ft | 199 kts | 232° |
| 2026-05-04 19:48 | 53.43975 | -2.09749 | 2780 ft | 196 kts | 233° |
| 2026-05-04 19:48 | 53.43125 | -2.11517 | 2495 ft | 193 kts | 234° |
| 2026-05-04 19:48 | 53.42288 | -2.13252 | 2219 ft | 188 kts | 234° |
| 2026-05-04 19:49 | 53.41478 | -2.14923 | 1982 ft | 181 kts | 234° |
| 2026-05-04 19:49 | 53.40694 | -2.16540 | 1752 ft | 176 kts | 234° |
| 2026-05-04 19:49 | 53.39951 | -2.18073 | 1501 ft | 164 kts | 234° |
| 2026-05-04 19:49 | 53.39240 | -2.19542 | 1292 ft | 161 kts | 234° |
| 2026-05-04 19:50 | 53.38529 | -2.20995 | 1045 ft | 160 kts | 233° |
| 2026-05-04 19:50 | 53.37820 | -2.22409 | 829 ft | 161 kts | 233° |
| 2026-05-04 19:50 | 53.37119 | -2.23868 | 638 ft | 159 kts | 234° |
| 2026-05-04 19:50 | 53.36427 | -2.25305 | 402 ft | 158 kts | 234° |
| 2026-05-04 19:51 | 53.35759 | -2.26705 | 273 ft | 140 kts | 234° |
| 2026-05-04 19:51 | 53.35268 | -2.27721 | 242 ft | 84 kts | 231° |
| 2026-05-04 19:51 | 53.35021 | -2.28241 | 239 ft | 42 kts | 237° |
| 2026-05-04 19:51 | 53.34951 | -2.28565 | 235 ft | 23 kts | 259° |
| 2026-05-04 19:52 | 53.34957 | -2.28710 | 236 ft | 10 kts | 304° |
| 2026-05-04 19:52 | 53.35016 | -2.28724 | 233 ft | 9 kts | 31° |
| 2026-05-04 19:52 | 53.35060 | -2.28655 | 235 ft | 8 kts | 49° |
| 2026-05-04 19:52 | 53.35100 | -2.28573 | 237 ft | 10 kts | 51° |
| 2026-05-04 19:53 | 53.35127 | -2.28517 | 233 ft | 8 kts | 51° |
| 2026-05-04 19:53 | 53.35169 | -2.28430 | 236 ft | 10 kts | 51° |
| 2026-05-04 19:53 | 53.35208 | -2.28351 | 238 ft | 8 kts | 47° |
| 2026-05-04 19:53 | 53.35251 | -2.28278 | 239 ft | 12 kts | 44° |
| 2026-05-04 19:54 | 53.35300 | -2.28220 | 236 ft | 14 kts | 29° |
| 2026-05-04 19:54 | 53.35387 | -2.28167 | 239 ft | 13 kts | 13° |
| 2026-05-04 19:54 | 53.35483 | -2.28131 | 238 ft | 16 kts | 22° |
| 2026-05-04 19:54 | 53.35572 | -2.28008 | 241 ft | 16 kts | 50° |
| 2026-05-04 19:55 | 53.35651 | -2.27895 | 246 ft | 14 kts | 15° |
| 2026-05-04 19:55 | 53.35755 | -2.27873 | 251 ft | 16 kts | 5° |
| 2026-05-04 19:55 | 53.35858 | -2.27856 | 257 ft | 14 kts | 6° |
| 2026-05-04 19:55 | 53.35959 | -2.27867 | 259 ft | 16 kts | 338° |
| 2026-05-04 19:56 | 53.36052 | -2.27989 | 259 ft | 18 kts | 319° |
| 2026-05-04 19:56 | 53.36146 | -2.28134 | 259 ft | 19 kts | 320° |
| 2026-05-04 19:56 | 53.36242 | -2.28097 | 259 ft | 15 kts | 31° |
| 2026-05-04 19:56 | 53.36341 | -2.28017 | 259 ft | 17 kts | 38° |
| 2026-05-04 19:57 | 53.36394 | -2.27877 | 259 ft | 15 kts | 92° |
| 2026-05-04 19:57 | 53.36378 | -2.27782 | 259 ft | 7 kts | 114° |
| 2026-05-04 19:57 | 53.36371 | -2.27735 | 259 ft | 3 kts | 84° |
| 2026-05-04 19:57 | 53.36383 | -2.27702 | 259 ft | 3 kts | 52° |
| 2026-05-04 19:58 | 53.36389 | -2.27693 | 259 ft | 2 kts | 44° |
| 2026-05-04 19:58 | 53.36398 | -2.27679 | 259 ft | 1 kts | 44° |
| 2026-05-04 19:58 | 53.36404 | -2.27670 | 259 ft | 1 kts | 44° |
| 2026-05-04 19:58 | 53.36404 | -2.27669 | 259 ft | 0 kts | 44° |
| 2026-05-04 19:59 | 53.36405 | -2.27667 | 259 ft | 0 kts | 44° |